Time;durP1;ratioP1;P1;durP2;ratioP2;P2;SDS_P1;SDS_P2;PMS_P1;PMS_P2;Temp;Humidity;BMP_temperature;BMP_pressure;BME280_temperature;BME280_humidity;BME280_pressure;Samples;Min_cycle;Max_cycle;Signal;HPM_P1;HPM_P2
2021/05/14 00:00:34;;;;;;;2.90;1.90;;;;;;;;;;5009304;28;20668;-64
2021/05/14 00:03:00;;;;;;;2.17;1.93;;;;;;;;;;5004465;28;20211;-64
2021/05/14 00:05:26;;;;;;;2.23;1.87;;;;;;;;;;5008252;28;20184;-64
2021/05/14 00:07:52;;;;;;;3.20;2.17;;;;;;;;;;5005708;28;20193;-65
2021/05/14 00:10:19;;;;;;;2.23;1.77;;;;;;;;;;5002635;28;20205;-64
2021/05/14 00:12:45;;;;;;;1.90;1.70;;;;;;;;;;5002571;28;20274;-65
2021/05/14 00:15:11;;;;;;;2.10;1.90;;;;;;;;;;5005863;28;20189;-65
2021/05/14 00:17:37;;;;;;;2.50;2.30;;;;;;;;;;5004960;28;20189;-64
2021/05/14 00:20:04;;;;;;;3.13;1.80;;;;;;;;;;5000020;28;20193;-64
2021/05/14 00:22:30;;;;;;;1.93;1.80;;;;;;;;;;5000007;28;20748;-64
2021/05/14 00:24:57;;;;;;;2.00;1.83;;;;;;;;;;5001570;28;20201;-64
2021/05/14 00:27:23;;;;;;;1.80;1.70;;;;;;;;;;5001188;28;21140;-64
2021/05/14 00:29:49;;;;;;;1.83;1.73;;;;;;;;;;5006020;28;20217;-64
2021/05/14 00:32:15;;;;;;;1.70;1.60;;;;;;;;;;5000103;28;20214;-65
2021/05/14 00:34:41;;;;;;;1.93;1.83;;;;;;;;;;5000135;28;20181;-65
2021/05/14 00:37:07;;;;;;;1.90;1.80;;;;;;;;;;5004517;28;20189;-64
2021/05/14 00:39:33;;;;;;;1.90;1.80;;;;;;;;;;4993666;28;20192;-64
2021/05/14 00:41:59;;;;;;;3.13;1.90;;;;;;;;;;4999978;28;20566;-64
2021/05/14 00:44:35;;;;;;;4.90;2.13;;;;;;;;;;5001115;28;20189;-65
2021/05/14 00:47:03;;;;;;;1.90;1.80;;;;;;;;;;4999787;28;20259;-66
2021/05/14 00:49:29;;;;;;;1.93;1.83;;;;;;;;;;5007125;28;20217;-65
2021/05/14 00:51:56;;;;;;;2.07;1.87;;;;;;;;;;5002110;28;20263;-65
2021/05/14 00:54:22;;;;;;;1.80;1.57;;;;;;;;;;5005138;28;20228;-66
2021/05/14 00:56:48;;;;;;;2.33;2.13;;;;;;;;;;5005902;28;20200;-64
2021/05/14 00:59:14;;;;;;;3.00;2.00;;;;;;;;;;4996702;28;20194;-65
2021/05/14 01:01:40;;;;;;;2.23;1.90;;;;;;;;;;4999325;28;20224;-64
2021/05/14 01:04:07;;;;;;;1.80;1.70;;;;;;;;;;5000181;28;20186;-65
2021/05/14 01:06:33;;;;;;;3.90;1.80;;;;;;;;;;5001442;28;20190;-64
2021/05/14 01:09:00;;;;;;;2.10;1.90;;;;;;;;;;5004427;28;20185;-64
2021/05/14 01:11:26;;;;;;;2.00;1.90;;;;;;;;;;5009132;28;20220;-64
2021/05/14 01:13:53;;;;;;;2.27;2.07;;;;;;;;;;5007226;28;20188;-64
2021/05/14 01:16:19;;;;;;;2.30;1.60;;;;;;;;;;5005162;28;20197;-64
2021/05/14 01:18:46;;;;;;;1.80;1.57;;;;;;;;;;5010796;28;20181;-64
2021/05/14 01:21:11;;;;;;;2.80;2.10;;;;;;;;;;5001580;28;20185;-64
2021/05/14 01:23:38;;;;;;;2.07;1.87;;;;;;;;;;5004205;28;20212;-64
2021/05/14 01:26:09;;;;;;;4.00;2.20;;;;;;;;;;5005418;28;20184;-64
2021/05/14 01:28:35;;;;;;;3.83;2.07;;;;;;;;;;5005108;28;20186;-64
2021/05/14 01:31:01;;;;;;;2.70;2.00;;;;;;;;;;5003430;28;20591;-64
2021/05/14 01:33:27;;;;;;;2.10;2.00;;;;;;;;;;5002945;28;20212;-64
2021/05/14 01:35:53;;;;;;;2.33;2.13;;;;;;;;;;5002816;28;20199;-64
2021/05/14 01:38:19;;;;;;;2.73;2.20;;;;;;;;;;5005598;28;20193;-64
2021/05/14 01:40:45;;;;;;;2.50;2.30;;;;;;;;;;5004680;28;20598;-63
2021/05/14 01:43:11;;;;;;;2.30;2.10;;;;;;;;;;5004760;28;20216;-64
2021/05/14 01:45:37;;;;;;;1.87;1.77;;;;;;;;;;5008549;28;20571;-64
2021/05/14 01:48:03;;;;;;;3.90;2.30;;;;;;;;;;5006585;28;20199;-64
2021/05/14 01:50:29;;;;;;;3.27;2.30;;;;;;;;;;5014331;28;20266;-64
2021/05/14 01:52:55;;;;;;;3.23;1.90;;;;;;;;;;5020611;28;20209;-64
2021/05/14 01:55:21;;;;;;;2.03;1.70;;;;;;;;;;5018501;28;20189;-66
2021/05/14 01:57:47;;;;;;;2.60;1.97;;;;;;;;;;5006862;28;20220;-64
2021/05/14 02:00:14;;;;;;;2.60;2.23;;;;;;;;;;5001642;28;20196;-63
2021/05/14 02:02:40;;;;;;;2.30;2.10;;;;;;;;;;4998555;28;20754;-64
2021/05/14 02:05:06;;;;;;;1.90;1.80;;;;;;;;;;5004338;28;20280;-64
2021/05/14 02:07:32;;;;;;;2.20;2.00;;;;;;;;;;5007355;28;20215;-64
2021/05/14 02:09:58;;;;;;;2.00;1.90;;;;;;;;;;5004520;28;20209;-64
2021/05/14 02:12:24;;;;;;;2.00;1.90;;;;;;;;;;5004536;28;20224;-63
2021/05/14 02:14:50;;;;;;;2.10;1.90;;;;;;;;;;4999679;28;21849;-63
2021/05/14 02:17:16;;;;;;;3.10;2.10;;;;;;;;;;5001645;28;20177;-64
2021/05/14 02:19:42;;;;;;;2.03;1.93;;;;;;;;;;4998031;28;20197;-64
2021/05/14 02:22:09;;;;;;;2.43;2.20;;;;;;;;;;5007955;28;20208;-64
2021/05/14 02:24:35;;;;;;;1.93;1.80;;;;;;;;;;5005214;28;20189;-64
2021/05/14 02:27:03;;;;;;;2.93;2.13;;;;;;;;;;5002345;28;20724;-64
2021/05/14 02:29:33;;;;;;;2.40;2.20;;;;;;;;;;5003729;28;20193;-64
2021/05/14 02:31:59;;;;;;;2.30;2.10;;;;;;;;;;5003053;28;20222;-64
2021/05/14 02:34:25;;;;;;;2.63;1.70;;;;;;;;;;5002804;28;20741;-64
2021/05/14 02:36:51;;;;;;;2.53;1.87;;;;;;;;;;4999621;28;20190;-64
2021/05/14 02:39:17;;;;;;;2.07;1.90;;;;;;;;;;5004419;28;20202;-63
2021/05/14 02:41:43;;;;;;;2.20;2.00;;;;;;;;;;5008502;28;20196;-63
2021/05/14 02:44:09;;;;;;;2.83;2.03;;;;;;;;;;5005355;28;20189;-64
2021/05/14 02:46:35;;;;;;;2.87;2.10;;;;;;;;;;5006058;28;20238;-63
2021/05/14 02:49:01;;;;;;;2.20;2.10;;;;;;;;;;5010540;28;20231;-63
2021/05/14 02:51:28;;;;;;;3.07;2.10;;;;;;;;;;5003411;28;20205;-64
2021/05/14 02:53:54;;;;;;;2.27;2.10;;;;;;;;;;5006373;28;20189;-64
2021/05/14 02:56:20;;;;;;;4.00;2.30;;;;;;;;;;5007040;28;20182;-64
2021/05/14 02:58:46;;;;;;;2.23;2.00;;;;;;;;;;5003956;28;20177;-63
2021/05/14 03:01:12;;;;;;;2.90;2.03;;;;;;;;;;4999966;28;20197;-64
2021/05/14 03:03:38;;;;;;;3.57;2.00;;;;;;;;;;5003038;28;20297;-64
2021/05/14 03:06:04;;;;;;;2.23;2.00;;;;;;;;;;4998258;28;20284;-64
2021/05/14 03:08:30;;;;;;;2.60;2.10;;;;;;;;;;5002175;28;20196;-64
2021/05/14 03:10:56;;;;;;;2.40;2.20;;;;;;;;;;5003577;28;20217;-64
2021/05/14 03:13:22;;;;;;;2.63;2.10;;;;;;;;;;5000857;28;20677;-63
2021/05/14 03:15:48;;;;;;;2.37;2.03;;;;;;;;;;4999778;28;20208;-64
2021/05/14 03:18:14;;;;;;;2.57;1.80;;;;;;;;;;5008983;28;20185;-63
2021/05/14 03:20:40;;;;;;;2.00;1.73;;;;;;;;;;5002392;28;20199;-64
2021/05/14 03:23:06;;;;;;;2.37;2.17;;;;;;;;;;5001394;28;20243;-64
2021/05/14 03:25:32;;;;;;;3.37;2.30;;;;;;;;;;5005874;28;20216;-64
2021/05/14 03:27:58;;;;;;;2.77;1.90;;;;;;;;;;5006327;28;20235;-64
2021/05/14 03:30:24;;;;;;;3.33;2.10;;;;;;;;;;5005021;28;20224;-64
2021/05/14 03:32:50;;;;;;;2.27;2.07;;;;;;;;;;5004175;28;20216;-64
2021/05/14 03:35:16;;;;;;;6.67;2.83;;;;;;;;;;5003765;28;20263;-64
2021/05/14 03:37:42;;;;;;;2.10;1.90;;;;;;;;;;4986951;28;20186;-64
2021/05/14 03:40:20;;;;;;;2.03;1.87;;;;;;;;;;4998530;28;20686;-64
2021/05/14 03:42:46;;;;;;;1.90;1.80;;;;;;;;;;5000220;28;20225;-64
2021/05/14 03:45:12;;;;;;;1.80;1.70;;;;;;;;;;5008614;28;20220;-64
2021/05/14 03:47:38;;;;;;;3.37;2.00;;;;;;;;;;5009516;28;20556;-64
2021/05/14 03:50:04;;;;;;;2.37;2.00;;;;;;;;;;5006327;28;20291;-64
2021/05/14 03:52:32;;;;;;;1.90;1.80;;;;;;;;;;5004922;28;20210;-64
2021/05/14 03:54:59;;;;;;;2.67;1.93;;;;;;;;;;5006029;28;20182;-64
2021/05/14 03:57:25;;;;;;;2.53;1.90;;;;;;;;;;5008110;28;20199;-64
2021/05/14 03:59:51;;;;;;;2.43;1.97;;;;;;;;;;5011417;28;20273;-63
2021/05/14 04:02:17;;;;;;;2.90;2.13;;;;;;;;;;5009754;28;20213;-63
2021/05/14 04:04:43;;;;;;;2.37;2.03;;;;;;;;;;5003779;28;20346;-63
2021/05/14 04:07:09;;;;;;;2.37;1.90;;;;;;;;;;5001822;28;20204;-64
2021/05/14 04:09:36;;;;;;;2.43;2.23;;;;;;;;;;5004590;28;20181;-63
2021/05/14 04:12:11;;;;;;;2.27;2.00;;;;;;;;;;5000060;28;20772;-63
2021/05/14 04:14:37;;;;;;;1.93;1.83;;;;;;;;;;5003706;28;20188;-63
2021/05/14 04:17:04;;;;;;;2.67;2.47;;;;;;;;;;5001208;28;20186;-64
2021/05/14 04:19:30;;;;;;;4.27;2.17;;;;;;;;;;5008699;28;20755;-64
2021/05/14 04:21:57;;;;;;;3.17;2.30;;;;;;;;;;4998318;28;20205;-65
2021/05/14 04:24:24;;;;;;;2.40;2.20;;;;;;;;;;5002090;28;20232;-64
2021/05/14 04:26:51;;;;;;;2.40;2.20;;;;;;;;;;4994723;28;20582;-64
2021/05/14 04:29:17;;;;;;;2.63;2.43;;;;;;;;;;5000139;28;20416;-63
2021/05/14 04:31:44;;;;;;;2.33;2.10;;;;;;;;;;5001592;28;20196;-65
2021/05/14 04:34:11;;;;;;;2.37;2.13;;;;;;;;;;5010799;28;20190;-65
2021/05/14 04:36:37;;;;;;;2.73;2.47;;;;;;;;;;5001105;28;20240;-64
2021/05/14 04:39:03;;;;;;;2.23;2.10;;;;;;;;;;5002949;28;20260;-64
2021/05/14 04:41:29;;;;;;;2.60;2.30;;;;;;;;;;5001063;28;20205;-64
2021/05/14 04:43:55;;;;;;;2.23;2.13;;;;;;;;;;4997908;28;20204;-64
2021/05/14 04:46:21;;;;;;;2.40;2.30;;;;;;;;;;5001399;28;20194;-63
2021/05/14 04:48:47;;;;;;;4.03;2.40;;;;;;;;;;5006119;28;20549;-64
2021/05/14 04:51:13;;;;;;;2.37;2.20;;;;;;;;;;4994161;28;20296;-64
2021/05/14 04:53:40;;;;;;;3.60;2.90;;;;;;;;;;4990762;28;20219;-64
2021/05/14 04:56:06;;;;;;;4.60;2.57;;;;;;;;;;5002544;28;20200;-64
2021/05/14 04:58:32;;;;;;;3.00;2.60;;;;;;;;;;5009768;28;20706;-64
2021/05/14 05:00:58;;;;;;;2.93;2.43;;;;;;;;;;5003072;28;20198;-64
2021/05/14 05:03:24;;;;;;;3.50;2.53;;;;;;;;;;5005641;28;20759;-64
2021/05/14 05:05:51;;;;;;;2.83;2.20;;;;;;;;;;5003054;28;20263;-65
2021/05/14 05:08:17;;;;;;;2.53;2.20;;;;;;;;;;5003906;28;20258;-64
2021/05/14 05:10:43;;;;;;;2.00;1.90;;;;;;;;;;5003773;28;20228;-65
2021/05/14 05:13:09;;;;;;;3.90;1.93;;;;;;;;;;5001960;28;20715;-64
2021/05/14 05:15:35;;;;;;;3.50;3.13;;;;;;;;;;5004020;28;20182;-64
2021/05/14 05:18:01;;;;;;;2.77;2.07;;;;;;;;;;4998565;28;20201;-65
2021/05/14 05:20:27;;;;;;;2.40;2.20;;;;;;;;;;5005647;28;20229;-63
2021/05/14 05:22:53;;;;;;;2.17;1.93;;;;;;;;;;5001512;28;20280;-64
2021/05/14 05:25:19;;;;;;;2.90;2.70;;;;;;;;;;5005267;28;20189;-63
2021/05/14 05:27:45;;;;;;;4.57;2.63;;;;;;;;;;5004643;28;20800;-64
2021/05/14 05:30:11;;;;;;;2.70;2.00;;;;;;;;;;5007332;28;20296;-63
2021/05/14 05:32:38;;;;;;;2.13;1.93;;;;;;;;;;5008911;28;20297;-63
2021/05/14 05:35:04;;;;;;;2.60;1.80;;;;;;;;;;5005354;28;20268;-63
2021/05/14 05:37:30;;;;;;;2.43;1.80;;;;;;;;;;5002540;28;20649;-64
2021/05/14 05:39:56;;;;;;;2.40;2.00;;;;;;;;;;5003491;28;20220;-65
2021/05/14 05:42:22;;;;;;;1.80;1.70;;;;;;;;;;5002195;28;20220;-65
2021/05/14 05:44:48;;;;;;;2.33;1.80;;;;;;;;;;5011136;28;20669;-63
2021/05/14 05:47:14;;;;;;;1.97;1.83;;;;;;;;;;5020449;28;20189;-63
2021/05/14 05:49:40;;;;;;;2.00;1.70;;;;;;;;;;5003740;28;22147;-64
2021/05/14 05:52:06;;;;;;;1.73;1.63;;;;;;;;;;5006589;28;20246;-64
2021/05/14 05:54:32;;;;;;;2.30;1.47;;;;;;;;;;5006838;28;20189;-63
2021/05/14 05:57:00;;;;;;;4.70;1.30;;;;;;;;;;5004502;28;20199;-64
2021/05/14 05:59:26;;;;;;;2.03;1.50;;;;;;;;;;5001486;28;20181;-64
2021/05/14 06:01:52;;;;;;;1.50;1.40;;;;;;;;;;5003101;28;20237;-63
2021/05/14 06:04:18;;;;;;;2.47;1.42;;;;;;;;;;4998788;28;20204;-64
2021/05/14 06:06:44;;;;;;;1.75;1.23;;;;;;;;;;5003963;28;20185;-64
2021/05/14 06:09:10;;;;;;;1.77;1.35;;;;;;;;;;4995610;28;20181;-64
2021/05/14 06:11:36;;;;;;;3.42;1.30;;;;;;;;;;5005539;28;20205;-64
2021/05/14 06:14:03;;;;;;;1.73;1.10;;;;;;;;;;5011268;28;20197;-65
2021/05/14 06:16:29;;;;;;;1.33;1.23;;;;;;;;;;5004331;28;20198;-64
2021/05/14 06:19:08;;;;;;;2.20;1.20;;;;;;;;;;4999626;28;20173;-65
2021/05/14 06:21:34;;;;;;;1.98;1.10;;;;;;;;;;5004451;28;20185;-64
2021/05/14 06:24:00;;;;;;;1.70;1.10;;;;;;;;;;5005529;28;20212;-64
2021/05/14 06:26:26;;;;;;;1.55;1.13;;;;;;;;;;4997853;28;20201;-64
2021/05/14 06:28:52;;;;;;;2.70;2.40;;;;;;;;;;5006179;28;20189;-65
2021/05/14 06:31:18;;;;;;;1.23;1.10;;;;;;;;;;5002972;28;20821;-64
2021/05/14 06:33:44;;;;;;;1.27;1.17;;;;;;;;;;5005409;28;20875;-66
2021/05/14 06:36:11;;;;;;;1.13;1.02;;;;;;;;;;5009179;28;20185;-65
2021/05/14 06:38:38;;;;;;;2.10;1.05;;;;;;;;;;5003119;28;20197;-65
2021/05/14 06:41:04;;;;;;;2.22;1.20;;;;;;;;;;5003828;28;20912;-65
2021/05/14 06:43:30;;;;;;;4.03;1.50;;;;;;;;;;5006900;28;20204;-66
2021/05/14 06:45:56;;;;;;;4.30;1.17;;;;;;;;;;5002409;28;20188;-66
2021/05/14 06:48:22;;;;;;;2.13;1.10;;;;;;;;;;5009660;28;20185;-66
2021/05/14 06:50:48;;;;;;;1.20;1.10;;;;;;;;;;5003794;28;20364;-65
2021/05/14 06:53:16;;;;;;;3.33;1.10;;;;;;;;;;4997597;28;20198;-65
2021/05/14 06:55:42;;;;;;;1.73;1.13;;;;;;;;;;5000161;28;20204;-65
2021/05/14 06:58:08;;;;;;;1.48;1.13;;;;;;;;;;4998106;28;20182;-66
2021/05/14 07:00:34;;;;;;;1.45;1.20;;;;;;;;;;5003643;28;20182;-65
2021/05/14 07:03:00;;;;;;;1.10;1.00;;;;;;;;;;5002502;28;20202;-66
2021/05/14 07:05:26;;;;;;;2.90;1.02;;;;;;;;;;5008526;28;20185;-65
2021/05/14 07:07:53;;;;;;;1.08;0.95;;;;;;;;;;5003950;28;20196;-64
2021/05/14 07:10:19;;;;;;;1.25;0.90;;;;;;;;;;4998881;28;20220;-65
2021/05/14 07:12:45;;;;;;;1.27;0.70;;;;;;;;;;4998248;28;20374;-65
2021/05/14 07:15:11;;;;;;;1.15;0.90;;;;;;;;;;5006675;28;20858;-66
2021/05/14 07:17:38;;;;;;;0.82;0.80;;;;;;;;;;5004213;28;20231;-65
2021/05/14 07:20:04;;;;;;;3.35;0.82;;;;;;;;;;4985797;28;20205;-65
2021/05/14 07:22:30;;;;;;;0.80;0.60;;;;;;;;;;5006936;28;20212;-64
2021/05/14 07:24:56;;;;;;;1.08;0.80;;;;;;;;;;5000439;28;20195;-64
2021/05/14 07:27:22;;;;;;;0.80;0.52;;;;;;;;;;5000602;28;20209;-66
2021/05/14 07:29:48;;;;;;;2.25;0.70;;;;;;;;;;5001672;28;20330;-64
2021/05/14 07:32:14;;;;;;;0.60;0.60;;;;;;;;;;4999411;28;20713;-64
2021/05/14 07:34:40;;;;;;;1.70;0.70;;;;;;;;;;5004457;28;20733;-65
2021/05/14 07:37:07;;;;;;;2.03;0.75;;;;;;;;;;5003489;28;20674;-65
2021/05/14 07:39:36;;;;;;;1.38;0.70;;;;;;;;;;4997764;28;20184;-66
2021/05/14 07:42:03;;;;;;;0.75;0.65;;;;;;;;;;5000973;28;20213;-66
2021/05/14 07:44:29;;;;;;;2.05;0.82;;;;;;;;;;5003484;28;20185;-65
2021/05/14 07:46:55;;;;;;;1.10;0.70;;;;;;;;;;5003498;28;20185;-65
2021/05/14 07:49:21;;;;;;;0.90;0.75;;;;;;;;;;4998790;28;20182;-70
2021/05/14 07:51:47;;;;;;;2.53;1.00;;;;;;;;;;5001781;28;20627;-65
2021/05/14 07:54:13;;;;;;;1.10;1.00;;;;;;;;;;4998870;28;20193;-66
2021/05/14 07:56:39;;;;;;;1.10;0.60;;;;;;;;;;5001047;28;20267;-64
2021/05/14 07:59:06;;;;;;;1.77;0.85;;;;;;;;;;5002110;28;20712;-64
2021/05/14 08:01:32;;;;;;;0.70;0.52;;;;;;;;;;5012328;28;20272;-66
2021/05/14 08:03:58;;;;;;;1.00;0.70;;;;;;;;;;5007773;28;20667;-67
2021/05/14 08:06:24;;;;;;;0.70;0.70;;;;;;;;;;5006794;28;20188;-66
2021/05/14 08:08:51;;;;;;;0.90;0.68;;;;;;;;;;5007905;28;20234;-67
2021/05/14 08:11:17;;;;;;;1.13;0.40;;;;;;;;;;5000101;28;20236;-66
2021/05/14 08:13:43;;;;;;;0.85;0.60;;;;;;;;;;5008414;28;21805;-65
2021/05/14 08:16:09;;;;;;;2.30;0.57;;;;;;;;;;5003973;28;20176;-65
2021/05/14 08:18:35;;;;;;;0.43;0.40;;;;;;;;;;5011453;28;20181;-65
2021/05/14 08:21:01;;;;;;;1.52;0.63;;;;;;;;;;5003826;28;20657;-65
2021/05/14 08:23:27;;;;;;;0.68;0.47;;;;;;;;;;5005053;28;20209;-66
2021/05/14 08:25:53;;;;;;;1.40;0.40;;;;;;;;;;5008346;28;20186;-65
2021/05/14 08:28:19;;;;;;;0.77;0.50;;;;;;;;;;5014504;28;20196;-65
2021/05/14 08:30:46;;;;;;;1.35;0.40;;;;;;;;;;5008701;28;20212;-64
2021/05/14 08:33:12;;;;;;;0.77;0.40;;;;;;;;;;5011285;28;20236;-66
2021/05/14 08:35:39;;;;;;;0.60;0.43;;;;;;;;;;5011852;28;20247;-66
2021/05/14 08:38:06;;;;;;;0.30;0.30;;;;;;;;;;5009270;28;20986;-65
2021/05/14 08:40:33;;;;;;;1.23;0.60;;;;;;;;;;5002415;28;20192;-66
2021/05/14 08:43:00;;;;;;;1.50;0.70;;;;;;;;;;5004186;28;20212;-66
2021/05/14 08:45:26;;;;;;;1.98;0.70;;;;;;;;;;5009487;28;20211;-67
2021/05/14 08:47:56;;;;;;;0.82;0.65;;;;;;;;;;5003157;28;20189;-67
2021/05/14 08:50:23;;;;;;;1.38;0.50;;;;;;;;;;5007181;28;20209;-66
2021/05/14 08:52:49;;;;;;;0.70;0.60;;;;;;;;;;5014841;28;20227;-66
2021/05/14 08:55:16;;;;;;;2.33;1.10;;;;;;;;;;5011196;28;20235;-67
2021/05/14 08:57:42;;;;;;;0.68;0.60;;;;;;;;;;5002434;28;20273;-67
2021/05/14 09:00:09;;;;;;;2.28;0.75;;;;;;;;;;5009191;28;20209;-66
2021/05/14 09:02:36;;;;;;;0.60;0.60;;;;;;;;;;5005451;28;20200;-65
2021/05/14 09:05:20;;;;;;;3.80;0.95;;;;;;;;;;5005650;28;20198;-66
2021/05/14 09:07:47;;;;;;;0.68;0.50;;;;;;;;;;4997983;28;20697;-67
2021/05/14 09:10:13;;;;;;;0.75;0.50;;;;;;;;;;4996564;28;20303;-67
2021/05/14 09:12:39;;;;;;;1.75;0.60;;;;;;;;;;4996212;28;20873;-66
2021/05/14 09:15:25;;;;;;;1.85;0.45;;;;;;;;;;5000141;28;20192;-64
2021/05/14 09:18:14;;;;;;;0.80;0.45;;;;;;;;;;4999656;28;20178;-65
2021/05/14 09:20:43;;;;;;;0.30;0.30;;;;;;;;;;4999521;28;20236;-66
2021/05/14 09:23:30;;;;;;;2.55;0.52;;;;;;;;;;4998508;28;20219;-67
2021/05/14 09:26:04;;;;;;;0.70;0.40;;;;;;;;;;5002994;28;20211;-67
2021/05/14 09:28:32;;;;;;;2.85;0.35;;;;;;;;;;5006529;28;20196;-67
2021/05/14 09:31:01;;;;;;;2.25;0.60;;;;;;;;;;5001574;28;20652;-67
2021/05/14 09:33:28;;;;;;;2.30;0.70;;;;;;;;;;4991179;28;20193;-69
2021/05/14 09:36:01;;;;;;;2.10;0.80;;;;;;;;;;4994643;28;20198;-67
2021/05/14 09:38:28;;;;;;;1.52;0.82;;;;;;;;;;4994575;28;20201;-67
2021/05/14 09:40:54;;;;;;;1.25;0.60;;;;;;;;;;5001724;28;20658;-64
2021/05/14 09:43:24;;;;;;;1.02;0.65;;;;;;;;;;5003431;28;20263;-66
2021/05/14 09:45:50;;;;;;;0.88;0.70;;;;;;;;;;5019874;28;20181;-64
2021/05/14 09:48:22;;;;;;;1.17;0.90;;;;;;;;;;5017663;23;20341;-62
2021/05/14 09:50:49;;;;;;;1.25;0.80;;;;;;;;;;4968974;28;20218;-67
2021/05/14 09:53:16;;;;;;;1.63;1.33;;;;;;;;;;4981556;28;20288;-66
2021/05/14 09:58:38;;;;;;;4.28;1.05;;;;;;;;;;4964435;28;20217;-67
2021/05/14 10:01:06;;;;;;;1.15;0.68;;;;;;;;;;4961923;28;20324;-67
2021/05/14 10:03:35;;;;;;;2.25;0.90;;;;;;;;;;4958378;28;20293;-68
2021/05/14 10:06:03;;;;;;;1.48;0.90;;;;;;;;;;4942958;28;20194;-66
2021/05/14 10:08:33;;;;;;;2.70;0.80;;;;;;;;;;4962342;28;20810;-69
2021/05/14 10:11:03;;;;;;;1.10;0.68;;;;;;;;;;4960539;28;20221;-65
2021/05/14 10:13:32;;;;;;;1.73;1.00;;;;;;;;;;4960779;28;20266;-66
2021/05/14 10:16:06;;;;;;;1.25;0.80;;;;;;;;;;4963659;28;20226;-65
2021/05/14 10:18:35;;;;;;;2.63;1.23;;;;;;;;;;4963613;28;20214;-66
2021/05/14 10:21:05;;;;;;;1.92;1.20;;;;;;;;;;4963249;28;20693;-64
2021/05/14 10:23:31;;;;;;;1.83;1.00;;;;;;;;;;4969911;28;20194;-66
2021/05/14 10:26:05;;;;;;;1.30;1.20;;;;;;;;;;4970424;28;20248;-66
2021/05/14 10:28:37;;;;;;;1.58;1.33;;;;;;;;;;4969752;28;20229;-66
2021/05/14 10:31:05;;;;;;;1.60;1.05;;;;;;;;;;4962431;28;20365;-65
2021/05/14 10:33:40;;;;;;;1.75;1.30;;;;;;;;;;4967585;28;20261;-65
2021/05/14 10:36:10;;;;;;;1.52;0.93;;;;;;;;;;4987035;28;20189;-67
2021/05/14 10:38:36;;;;;;;1.83;1.20;;;;;;;;;;4990151;28;20252;-65
2021/05/14 10:41:25;;;;;;;2.08;1.08;;;;;;;;;;4990691;28;20244;-66
2021/05/14 10:43:59;;;;;;;1.10;1.00;;;;;;;;;;4989892;28;20189;-65
2021/05/14 10:46:28;;;;;;;3.13;1.20;;;;;;;;;;4987136;28;20229;-66
2021/05/14 10:49:00;;;;;;;1.13;1.00;;;;;;;;;;4989960;28;20212;-65
2021/05/14 10:51:45;;;;;;;2.33;0.90;;;;;;;;;;4987629;28;20292;-65
2021/05/14 10:54:31;;;;;;;1.80;0.80;;;;;;;;;;4988118;28;20203;-65
2021/05/14 10:56:57;;;;;;;1.02;0.80;;;;;;;;;;4983687;28;20196;-65
2021/05/14 10:59:30;;;;;;;2.20;0.85;;;;;;;;;;4995219;28;20205;-65
2021/05/14 11:01:57;;;;;;;0.85;0.70;;;;;;;;;;4986085;28;20186;-66
2021/05/14 11:04:32;;;;;;;1.13;0.70;;;;;;;;;;4988125;28;20197;-66
2021/05/14 11:06:58;;;;;;;1.20;0.90;;;;;;;;;;4984023;28;20663;-66
2021/05/14 11:09:25;;;;;;;2.20;0.65;;;;;;;;;;4983038;28;21008;-66
2021/05/14 11:12:00;;;;;;;0.85;0.60;;;;;;;;;;4987069;28;20201;-66
2021/05/14 11:14:26;;;;;;;1.52;0.30;;;;;;;;;;4987779;28;20925;-66
2021/05/14 11:16:53;;;;;;;1.38;0.40;;;;;;;;;;4988613;28;20192;-66
2021/05/14 11:19:19;;;;;;;0.90;0.20;;;;;;;;;;4984006;28;20704;-66
2021/05/14 11:22:04;;;;;;;0.52;0.20;;;;;;;;;;4985200;28;20189;-64
2021/05/14 11:24:36;;;;;;;1.30;0.30;;;;;;;;;;4980200;28;20586;-67
2021/05/14 11:27:05;;;;;;;1.35;0.40;;;;;;;;;;4983549;28;20871;-66
2021/05/14 11:29:36;;;;;;;2.53;0.40;;;;;;;;;;4986492;28;20236;-66
2021/05/14 11:32:18;;;;;;;4.15;1.13;;;;;;;;;;4986493;28;20232;-67
2021/05/14 11:34:50;;;;;;;0.93;0.50;;;;;;;;;;4987800;28;20239;-65
2021/05/14 11:37:24;;;;;;;2.90;0.90;;;;;;;;;;4986706;28;20173;-65
2021/05/14 11:39:50;;;;;;;1.35;0.52;;;;;;;;;;4987889;28;20212;-66
2021/05/14 11:42:20;;;;;;;1.15;0.40;;;;;;;;;;4985295;28;20185;-66
2021/05/14 11:45:00;;;;;;;2.53;0.77;;;;;;;;;;4987940;28;20182;-65
2021/05/14 11:47:26;;;;;;;0.88;0.50;;;;;;;;;;4988807;28;20208;-66
2021/05/14 11:49:52;;;;;;;0.80;0.47;;;;;;;;;;4985364;28;20209;-66
2021/05/14 11:52:31;;;;;;;1.00;0.52;;;;;;;;;;4987494;28;20181;-65
2021/05/14 11:55:01;;;;;;;1.08;0.60;;;;;;;;;;4991787;28;20204;-65
2021/05/14 11:57:29;;;;;;;1.75;0.40;;;;;;;;;;4986302;28;20200;-66
2021/05/14 11:59:55;;;;;;;1.08;0.32;;;;;;;;;;5002297;28;20213;-67
2021/05/14 12:02:34;;;;;;;1.52;0.40;;;;;;;;;;4989764;28;20178;-66
2021/05/14 12:05:00;;;;;;;2.67;0.40;;;;;;;;;;4985703;28;20602;-66
2021/05/14 12:07:27;;;;;;;1.42;0.38;;;;;;;;;;4988074;28;20661;-63
2021/05/14 12:10:03;;;;;;;0.85;0.22;;;;;;;;;;4987585;28;20209;-65
2021/05/14 12:12:29;;;;;;;2.17;0.60;;;;;;;;;;4990834;28;20177;-66
2021/05/14 12:15:08;;;;;;;1.30;0.45;;;;;;;;;;4987844;28;20736;-66
2021/05/14 12:17:36;;;;;;;1.73;0.20;;;;;;;;;;4988487;28;20718;-66
2021/05/14 12:20:20;;;;;;;1.27;0.45;;;;;;;;;;4984309;28;20236;-65
2021/05/14 12:22:48;;;;;;;1.20;0.38;;;;;;;;;;4986773;28;20181;-65
2021/05/14 12:25:14;;;;;;;0.85;0.32;;;;;;;;;;4985791;28;20221;-66
2021/05/14 12:27:41;;;;;;;1.17;0.50;;;;;;;;;;4992195;28;20725;-67
2021/05/14 12:30:09;;;;;;;2.33;0.55;;;;;;;;;;5000350;28;21007;-66
2021/05/14 12:32:35;;;;;;;0.80;0.40;;;;;;;;;;4980475;28;20197;-65
2021/05/14 12:35:01;;;;;;;0.73;0.38;;;;;;;;;;4981542;28;20692;-67
2021/05/14 12:37:27;;;;;;;2.60;0.60;;;;;;;;;;4980657;28;20221;-67
2021/05/14 12:39:53;;;;;;;2.90;0.75;;;;;;;;;;4982605;28;20210;-67
2021/05/14 12:42:26;;;;;;;2.63;0.52;;;;;;;;;;4984967;28;20696;-67
2021/05/14 12:44:53;;;;;;;1.63;0.20;;;;;;;;;;4986580;28;20705;-67
2021/05/14 12:47:21;;;;;;;1.65;0.50;;;;;;;;;;4989976;28;20205;-65
2021/05/14 12:49:52;;;;;;;0.63;0.17;;;;;;;;;;4989034;28;20248;-65
2021/05/14 12:52:25;;;;;;;2.35;0.50;;;;;;;;;;4988980;28;20244;-67
2021/05/14 12:54:53;;;;;;;0.93;0.40;;;;;;;;;;4991972;28;20609;-65
2021/05/14 12:57:23;;;;;;;1.15;0.50;;;;;;;;;;4994258;28;20260;-65
2021/05/14 12:59:49;;;;;;;1.42;0.40;;;;;;;;;;4989133;28;20210;-65
2021/05/14 13:02:18;;;;;;;1.20;0.40;;;;;;;;;;4987794;28;20189;-67
2021/05/14 13:04:44;;;;;;;1.63;0.40;;;;;;;;;;4990667;28;20185;-66
2021/05/14 13:07:13;;;;;;;0.70;0.20;;;;;;;;;;4986379;28;20174;-66
2021/05/14 13:09:48;;;;;;;1.67;0.40;;;;;;;;;;4991467;28;20665;-65
2021/05/14 13:12:14;;;;;;;2.55;0.60;;;;;;;;;;4983032;28;20196;-66
2021/05/14 13:14:40;;;;;;;2.17;0.50;;;;;;;;;;4988597;28;20250;-66
2021/05/14 13:17:06;;;;;;;3.67;0.50;;;;;;;;;;4987044;28;20213;-65
2021/05/14 13:19:32;;;;;;;1.83;0.30;;;;;;;;;;4983243;28;20223;-66
2021/05/14 13:21:58;;;;;;;2.05;0.50;;;;;;;;;;4982490;28;20181;-66
2021/05/14 13:24:24;;;;;;;2.70;1.52;;;;;;;;;;4981294;28;20205;-66
2021/05/14 13:26:50;;;;;;;1.30;0.55;;;;;;;;;;4988374;28;20181;-66
2021/05/14 13:29:16;;;;;;;1.52;0.40;;;;;;;;;;4989582;28;20719;-67
2021/05/14 13:31:42;;;;;;;1.00;0.50;;;;;;;;;;4990891;28;20254;-67
2021/05/14 13:34:08;;;;;;;2.05;0.70;;;;;;;;;;4992248;28;20185;-66
2021/05/14 13:36:34;;;;;;;1.10;0.55;;;;;;;;;;4986994;28;20214;-66
2021/05/14 13:39:01;;;;;;;3.28;0.63;;;;;;;;;;4984354;28;20222;-66
2021/05/14 13:41:27;;;;;;;1.60;0.40;;;;;;;;;;5007079;28;20212;-66
2021/05/14 13:43:53;;;;;;;3.03;0.77;;;;;;;;;;4989314;28;20219;-66
2021/05/14 13:46:19;;;;;;;0.93;0.50;;;;;;;;;;4986798;28;20328;-67
2021/05/14 13:48:45;;;;;;;1.70;0.43;;;;;;;;;;4986578;28;20727;-67
2021/05/14 13:51:11;;;;;;;1.23;0.70;;;;;;;;;;4989497;28;20206;-67
2021/05/14 13:53:37;;;;;;;1.17;0.40;;;;;;;;;;4989120;28;20186;-67
2021/05/14 13:56:03;;;;;;;0.80;0.38;;;;;;;;;;4985865;28;20198;-67
2021/05/14 13:58:29;;;;;;;2.22;0.60;;;;;;;;;;4990366;28;20577;-67
2021/05/14 14:00:55;;;;;;;1.63;1.42;;;;;;;;;;4997706;28;20185;-67
2021/05/14 14:03:21;;;;;;;1.85;0.30;;;;;;;;;;4990391;28;20649;-67
2021/05/14 14:05:47;;;;;;;0.82;0.50;;;;;;;;;;4990847;28;20201;-67
2021/05/14 14:08:14;;;;;;;1.52;0.60;;;;;;;;;;4989697;28;20679;-66
2021/05/14 14:10:41;;;;;;;2.20;0.50;;;;;;;;;;4989744;28;20205;-66
2021/05/14 14:13:09;;;;;;;2.33;0.32;;;;;;;;;;4987259;28;20189;-67
2021/05/14 14:15:35;;;;;;;2.17;0.50;;;;;;;;;;4992435;28;20694;-66
2021/05/14 14:18:01;;;;;;;2.53;0.38;;;;;;;;;;4983116;28;20179;-67
2021/05/14 14:20:27;;;;;;;1.38;0.35;;;;;;;;;;4985949;28;20603;-66
2021/05/14 14:22:53;;;;;;;4.43;1.42;;;;;;;;;;4990743;28;20679;-67
2021/05/14 14:25:19;;;;;;;3.88;0.70;;;;;;;;;;4999037;28;20221;-66
2021/05/14 14:27:45;;;;;;;1.95;0.73;;;;;;;;;;5003085;28;20185;-66
2021/05/14 14:30:13;;;;;;;3.10;0.80;;;;;;;;;;4992694;28;20214;-66
2021/05/14 14:32:39;;;;;;;0.82;0.57;;;;;;;;;;4995350;28;20192;-67
2021/05/14 14:35:06;;;;;;;4.90;1.17;;;;;;;;;;4989723;28;20193;-67
2021/05/14 14:37:32;;;;;;;1.77;0.60;;;;;;;;;;4987864;28;20207;-66
2021/05/14 14:39:58;;;;;;;3.15;0.55;;;;;;;;;;4989960;28;20384;-67
2021/05/14 14:42:24;;;;;;;1.50;0.75;;;;;;;;;;4988678;28;20232;-66
2021/05/14 14:44:50;;;;;;;0.88;0.75;;;;;;;;;;4989719;28;20755;-67
2021/05/14 14:47:16;;;;;;;2.28;1.10;;;;;;;;;;4989323;28;20189;-67